sensor_id;sensor_type;location;lat;lon;timestamp;pressure;altitude;pressure_sealevel;temperature;humidity
10806;BME280;5455;53.224;6.000;2023-01-27T00:00:56;102737.56;;;4.85;100.00
10806;BME280;5455;53.224;6.000;2023-01-27T00:03:24;102739.47;;;4.85;100.00
10806;BME280;5455;53.224;6.000;2023-01-27T00:05:51;102728.28;;;4.76;100.00
10806;BME280;5455;53.224;6.000;2023-01-27T00:08:18;102739.19;;;4.66;100.00
10806;BME280;5455;53.224;6.000;2023-01-27T00:10:45;102732.38;;;4.59;100.00
10806;BME280;5455;53.224;6.000;2023-01-27T00:13:13;102733.75;;;4.56;100.00
10806;BME280;5455;53.224;6.000;2023-01-27T00:15:53;102737.56;;;4.50;100.00
10806;BME280;5455;53.224;6.000;2023-01-27T00:18:20;102741.13;;;4.51;100.00
10806;BME280;5455;53.224;6.000;2023-01-27T00:20:50;102737.84;;;4.49;100.00
10806;BME280;5455;53.224;6.000;2023-01-27T00:23:36;102741.09;;;4.45;100.00
10806;BME280;5455;53.224;6.000;2023-01-27T00:26:22;102742.75;;;4.47;100.00
10806;BME280;5455;53.224;6.000;2023-01-27T00:28:49;102738.13;;;4.47;100.00
10806;BME280;5455;53.224;6.000;2023-01-27T00:31:17;102749.88;;;4.48;100.00
10806;BME280;5455;53.224;6.000;2023-01-27T00:34:05;102740.03;;;4.47;100.00
10806;BME280;5455;53.224;6.000;2023-01-27T00:36:37;102745.19;;;4.48;100.00
10806;BME280;5455;53.224;6.000;2023-01-27T00:39:05;102744.13;;;4.44;100.00
10806;BME280;5455;53.224;6.000;2023-01-27T00:41:34;102746.84;;;4.49;100.00
10806;BME280;5455;53.224;6.000;2023-01-27T00:44:01;102746.84;;;4.49;100.00
10806;BME280;5455;53.224;6.000;2023-01-27T00:46:31;102753.41;;;4.53;100.00
10806;BME280;5455;53.224;6.000;2023-01-27T00:48:59;102754.22;;;4.54;100.00
10806;BME280;5455;53.224;6.000;2023-01-27T00:51:26;102741.91;;;4.51;100.00
10806;BME280;5455;53.224;6.000;2023-01-27T00:53:53;102744.13;;;4.54;100.00
10806;BME280;5455;53.224;6.000;2023-01-27T00:56:20;102750.41;;;4.55;100.00
10806;BME280;5455;53.224;6.000;2023-01-27T00:58:47;102758.88;;;4.53;100.00
10806;BME280;5455;53.224;6.000;2023-01-27T01:01:16;102764.59;;;4.52;100.00
10806;BME280;5455;53.224;6.000;2023-01-27T01:03:44;102761.88;;;4.52;100.00
10806;BME280;5455;53.224;6.000;2023-01-27T01:06:13;102766.25;;;4.53;100.00
10806;BME280;5455;53.224;6.000;2023-01-27T01:08:41;102761.03;;;4.51;100.00
10806;BME280;5455;53.224;6.000;2023-01-27T01:11:10;102764.88;;;4.50;100.00
10806;BME280;5455;53.224;6.000;2023-01-27T01:13:40;102763.25;;;4.49;100.00
10806;BME280;5455;53.224;6.000;2023-01-27T01:16:25;102764.59;;;4.52;100.00
10806;BME280;5455;53.224;6.000;2023-01-27T01:18:53;102774.16;;;4.49;100.00
10806;BME280;5455;53.224;6.000;2023-01-27T01:21:20;102773.06;;;4.45;100.00
10806;BME280;5455;53.224;6.000;2023-01-27T01:23:47;102771.16;;;4.40;100.00
10806;BME280;5455;53.224;6.000;2023-01-27T01:26:16;102767.88;;;4.38;100.00
10806;BME280;5455;53.224;6.000;2023-01-27T01:28:44;102771.41;;;4.34;100.00
10806;BME280;5455;53.224;6.000;2023-01-27T01:31:17;102770.31;;;4.35;100.00
10806;BME280;5455;53.224;6.000;2023-01-27T01:33:46;102768.38;;;4.30;100.00
10806;BME280;5455;53.224;6.000;2023-01-27T01:36:16;102777.94;;;4.28;100.00
10806;BME280;5455;53.224;6.000;2023-01-27T01:38:44;102781.75;;;4.27;100.00
10806;BME280;5455;53.224;6.000;2023-01-27T01:41:17;102779.03;;;4.27;100.00
10806;BME280;5455;53.224;6.000;2023-01-27T01:43:47;102783.41;;;4.28;100.00
10806;BME280;5455;53.224;6.000;2023-01-27T01:46:14;102774.38;;;4.22;100.00
10806;BME280;5455;53.224;6.000;2023-01-27T01:48:53;102777.13;;;4.22;100.00
10806;BME280;5455;53.224;6.000;2023-01-27T01:51:37;102780.38;;;4.19;100.00
10806;BME280;5455;53.224;6.000;2023-01-27T01:54:08;102786.38;;;4.21;100.00
10806;BME280;5455;53.224;6.000;2023-01-27T01:59:42;102777.09;;;4.17;100.00
10806;BME280;5455;53.224;6.000;2023-01-27T02:02:12;102780.34;;;4.09;100.00
10806;BME280;5455;53.224;6.000;2023-01-27T02:04:47;102790.44;;;4.09;100.00
10806;BME280;5455;53.224;6.000;2023-01-27T02:07:20;102788.50;;;4.04;100.00
10806;BME280;5455;53.224;6.000;2023-01-27T02:09:50;102790.16;;;4.05;100.00
10806;BME280;5455;53.224;6.000;2023-01-27T02:12:18;102794.53;;;4.06;100.00
10806;BME280;5455;53.224;6.000;2023-01-27T02:14:45;102790.72;;;4.07;100.00
10806;BME280;5455;53.224;6.000;2023-01-27T02:17:13;102796.16;;;4.02;100.00
10806;BME280;5455;53.224;6.000;2023-01-27T02:22:42;102798.81;;;3.87;100.00
10806;BME280;5455;53.224;6.000;2023-01-27T02:25:42;102796.66;;;3.89;100.00
10806;BME280;5455;53.224;6.000;2023-01-27T02:28:10;102804.31;;;3.97;100.00
10806;BME280;5455;53.224;6.000;2023-01-27T02:30:37;102801.09;;;4.05;100.00
10806;BME280;5455;53.224;6.000;2023-01-27T02:33:12;102805.97;;;4.03;100.00
10806;BME280;5455;53.224;6.000;2023-01-27T02:36:01;102802.41;;;4.03;100.00
10806;BME280;5455;53.224;6.000;2023-01-27T02:38:30;102797.78;;;4.03;100.00
10806;BME280;5455;53.224;6.000;2023-01-27T02:41:05;102797.53;;;4.05;100.00
10806;BME280;5455;53.224;6.000;2023-01-27T02:43:33;102794.00;;;4.09;100.00
10806;BME280;5455;53.224;6.000;2023-01-27T02:46:00;102786.09;;;4.13;100.00
10806;BME280;5455;53.224;6.000;2023-01-27T02:48:28;102784.72;;;4.15;100.00
10806;BME280;5455;53.224;6.000;2023-01-27T02:50:56;102787.19;;;4.17;100.00
10806;BME280;5455;53.224;6.000;2023-01-27T02:53:24;102789.34;;;4.10;100.00
10806;BME280;5455;53.224;6.000;2023-01-27T02:55:51;102794.28;;;4.13;100.00
10806;BME280;5455;53.224;6.000;2023-01-27T02:58:18;102804.13;;;4.24;100.00
10806;BME280;5455;53.224;6.000;2023-01-27T03:00:50;102800.91;;;4.32;100.00
10806;BME280;5455;53.224;6.000;2023-01-27T03:03:17;102804.47;;;4.32;100.00
10806;BME280;5455;53.224;6.000;2023-01-27T03:05:45;102803.34;;;4.33;100.00
10806;BME280;5455;53.224;6.000;2023-01-27T03:08:12;102812.66;;;4.32;100.00
10806;BME280;5455;53.224;6.000;2023-01-27T03:10:41;102818.66;;;4.29;100.00
10806;BME280;5455;53.224;6.000;2023-01-27T03:13:10;102823.53;;;4.22;100.00
10806;BME280;5455;53.224;6.000;2023-01-27T03:15:38;102830.59;;;4.13;100.00
10806;BME280;5455;53.224;6.000;2023-01-27T03:18:24;102819.63;;;4.03;100.00
10806;BME280;5455;53.224;6.000;2023-01-27T03:20:59;102829.16;;;4.01;100.00
10806;BME280;5455;53.224;6.000;2023-01-27T03:23:27;102827.56;;;4.05;100.00
10806;BME280;5455;53.224;6.000;2023-01-27T03:25:54;102832.19;;;4.04;100.00
10806;BME280;5455;53.224;6.000;2023-01-27T03:28:22;102834.91;;;4.04;100.00
10806;BME280;5455;53.224;6.000;2023-01-27T03:31:12;102845.03;;;4.09;100.00
10806;BME280;5455;53.224;6.000;2023-01-27T03:33:55;102836.84;;;4.09;100.00
10806;BME280;5455;53.224;6.000;2023-01-27T03:36:36;102840.38;;;4.09;100.00
10806;BME280;5455;53.224;6.000;2023-01-27T03:39:22;102838.19;;;4.06;100.00
10806;BME280;5455;53.224;6.000;2023-01-27T03:42:08;102845.81;;;3.99;100.00
10806;BME280;5455;53.224;6.000;2023-01-27T03:44:54;102848.47;;;3.84;100.00
10806;BME280;5455;53.224;6.000;2023-01-27T03:47:40;102845.69;;;3.79;100.00
10806;BME280;5455;53.224;6.000;2023-01-27T03:50:07;102841.88;;;3.80;100.00
10806;BME280;5455;53.224;6.000;2023-01-27T03:52:39;102838.63;;;3.78;100.00
10806;BME280;5455;53.224;6.000;2023-01-27T03:55:07;102845.97;;;3.77;100.00
10806;BME280;5455;53.224;6.000;2023-01-27T03:57:36;102842.13;;;3.73;100.00
10806;BME280;5455;53.224;6.000;2023-01-27T04:00:04;102833.91;;;3.68;100.00
10806;BME280;5455;53.224;6.000;2023-01-27T04:02:38;102847.28;;;3.70;100.00
10806;BME280;5455;53.224;6.000;2023-01-27T04:05:25;102850.59;;;3.72;100.00
10806;BME280;5455;53.224;6.000;2023-01-27T04:08:10;102852.75;;;3.70;100.00
10806;BME280;5455;53.224;6.000;2023-01-27T04:10:37;102848.91;;;3.66;100.00
10806;BME280;5455;53.224;6.000;2023-01-27T04:13:04;102848.84;;;3.56;100.00
10806;BME280;5455;53.224;6.000;2023-01-27T04:15:31;102863.53;;;3.50;100.00
10806;BME280;5455;53.224;6.000;2023-01-27T04:17:58;102861.34;;;3.52;100.00
10806;BME280;5455;53.224;6.000;2023-01-27T04:20:25;102852.91;;;3.53;100.00
10806;BME280;5455;53.224;6.000;2023-01-27T04:22:52;102849.63;;;3.51;100.00
10806;BME280;5455;53.224;6.000;2023-01-27T04:25:20;102858.59;;;3.47;100.00
10806;BME280;5455;53.224;6.000;2023-01-27T04:27:47;102857.53;;;3.48;100.00
10806;BME280;5455;53.224;6.000;2023-01-27T04:30:13;102862.16;;;3.52;100.00
10806;BME280;5455;53.224;6.000;2023-01-27T04:32:41;102863.03;;;3.58;100.00
10806;BME280;5455;53.224;6.000;2023-01-27T04:35:08;102865.28;;;3.66;100.00
10806;BME280;5455;53.224;6.000;2023-01-27T04:37:35;102869.63;;;3.67;100.00
10806;BME280;5455;53.224;6.000;2023-01-27T04:40:02;102875.66;;;3.69;100.00
10806;BME280;5455;53.224;6.000;2023-01-27T04:42:29;102871.81;;;3.70;100.00
10806;BME280;5455;53.224;6.000;2023-01-27T04:44:56;102873.47;;;3.71;100.00
10806;BME280;5455;53.224;6.000;2023-01-27T04:47:23;102872.94;;;3.69;100.00
10806;BME280;5455;53.224;6.000;2023-01-27T04:49:50;102874.53;;;3.65;100.00
10806;BME280;5455;53.224;6.000;2023-01-27T04:52:17;102874.81;;;3.63;100.00
10806;BME280;5455;53.224;6.000;2023-01-27T04:54:44;102874.81;;;3.63;100.00
10806;BME280;5455;53.224;6.000;2023-01-27T04:57:11;102872.09;;;3.63;100.00
10806;BME280;5455;53.224;6.000;2023-01-27T04:59:37;102868.25;;;3.64;100.00
10806;BME280;5455;53.224;6.000;2023-01-27T05:02:04;102859.25;;;3.64;100.00
10806;BME280;5455;53.224;6.000;2023-01-27T05:04:32;102867.41;;;3.59;100.00
10806;BME280;5455;53.224;6.000;2023-01-27T05:06:59;102875.59;;;3.64;100.00
10806;BME280;5455;53.224;6.000;2023-01-27T05:09:26;102873.47;;;3.66;100.00
10806;BME280;5455;53.224;6.000;2023-01-27T05:11:53;102869.63;;;3.67;100.00
10806;BME280;5455;53.224;6.000;2023-01-27T05:14:20;102869.38;;;3.68;100.00
10806;BME280;5455;53.224;6.000;2023-01-27T05:16:50;102865.28;;;3.66;100.00
10806;BME280;5455;53.224;6.000;2023-01-27T05:19:17;102868.00;;;3.66;100.00
10806;BME280;5455;53.224;6.000;2023-01-27T05:21:44;102875.88;;;3.62;100.00
10806;BME280;5455;53.224;6.000;2023-01-27T05:24:11;102875.88;;;3.57;100.00
10806;BME280;5455;53.224;6.000;2023-01-27T05:26:38;102877.47;;;3.53;100.00
10806;BME280;5455;53.224;6.000;2023-01-27T05:29:05;102879.88;;;3.50;100.00
10806;BME280;5455;53.224;6.000;2023-01-27T05:31:32;102891.66;;;3.55;100.00
10806;BME280;5455;53.224;6.000;2023-01-27T05:34:00;102883.22;;;3.57;100.00
10806;BME280;5455;53.224;6.000;2023-01-27T05:36:28;102890.28;;;3.58;100.00
10806;BME280;5455;53.224;6.000;2023-01-27T05:38:58;102882.69;;;3.60;100.00
10806;BME280;5455;53.224;6.000;2023-01-27T05:41:27;102883.25;;;3.62;100.00
10806;BME280;5455;53.224;6.000;2023-01-27T05:43:54;102886.53;;;3.64;100.00
10806;BME280;5455;53.224;6.000;2023-01-27T05:46:24;102886.28;;;3.65;100.00
10806;BME280;5455;53.224;6.000;2023-01-27T05:48:53;102876.72;;;3.63;100.00
10806;BME280;5455;53.224;6.000;2023-01-27T05:51:23;102880.50;;;3.62;100.00
10806;BME280;5455;53.224;6.000;2023-01-27T05:53:51;102884.06;;;3.62;100.00
10806;BME280;5455;53.224;6.000;2023-01-27T05:56:21;102883.78;;;3.64;100.00
10806;BME280;5455;53.224;6.000;2023-01-27T05:58:49;102878.91;;;3.66;100.00
10806;BME280;5455;53.224;6.000;2023-01-27T06:01:18;102882.19;;;3.68;100.00
10806;BME280;5455;53.224;6.000;2023-01-27T06:03:46;102858.72;;;3.67;100.00
10806;BME280;5455;53.224;6.000;2023-01-27T06:06:16;102872.88;;;3.64;100.00
10806;BME280;5455;53.224;6.000;2023-01-27T06:08:44;102873.69;;;3.59;100.00
10806;BME280;5455;53.224;6.000;2023-01-27T06:11:11;102885.13;;;3.56;100.00
10806;BME280;5455;53.224;6.000;2023-01-27T06:13:39;102877.75;;;3.57;100.00
10806;BME280;5455;53.224;6.000;2023-01-27T06:16:10;102881.03;;;3.59;100.00
10806;BME280;5455;53.224;6.000;2023-01-27T06:18:38;102893.63;;;3.65;100.00
10806;BME280;5455;53.224;6.000;2023-01-27T06:21:07;102887.94;;;3.66;100.00
10806;BME280;5455;53.224;6.000;2023-01-27T06:23:35;102891.75;;;3.70;100.00
10806;BME280;5455;53.224;6.000;2023-01-27T06:26:07;102897.78;;;3.72;100.00
10806;BME280;5455;53.224;6.000;2023-01-27T06:28:36;102901.03;;;3.69;100.00
10806;BME280;5455;53.224;6.000;2023-01-27T06:31:12;102905.44;;;3.75;100.00
10806;BME280;5455;53.224;6.000;2023-01-27T06:33:40;102914.44;;;3.76;100.00
10806;BME280;5455;53.224;6.000;2023-01-27T06:36:11;102910.38;;;3.78;100.00
10806;BME280;5455;53.224;6.000;2023-01-27T06:38:38;102915.84;;;3.78;100.00
10806;BME280;5455;53.224;6.000;2023-01-27T06:41:05;102917.75;;;3.78;100.00
10806;BME280;5455;53.224;6.000;2023-01-27T06:43:33;102924.03;;;3.78;100.00
10806;BME280;5455;53.224;6.000;2023-01-27T06:46:00;102922.66;;;3.81;100.00
10806;BME280;5455;53.224;6.000;2023-01-27T06:48:31;102918.03;;;3.81;100.00
10806;BME280;5455;53.224;6.000;2023-01-27T06:50:58;102926.78;;;3.83;100.00
10806;BME280;5455;53.224;6.000;2023-01-27T06:53:25;102929.50;;;3.83;100.00
10806;BME280;5455;53.224;6.000;2023-01-27T06:55:57;102934.41;;;3.81;100.00
10806;BME280;5455;53.224;6.000;2023-01-27T06:58:25;102942.06;;;3.84;100.00
10806;BME280;5455;53.224;6.000;2023-01-27T07:00:53;102944.81;;;3.84;100.00
10806;BME280;5455;53.224;6.000;2023-01-27T07:03:20;102936.88;;;3.83;100.00
10806;BME280;5455;53.224;6.000;2023-01-27T07:05:47;102939.03;;;3.81;100.00
10806;BME280;5455;53.224;6.000;2023-01-27T07:08:15;102944.44;;;3.76;100.00
10806;BME280;5455;53.224;6.000;2023-01-27T07:10:42;102941.16;;;3.74;100.00
10806;BME280;5455;53.224;6.000;2023-01-27T07:13:11;102936.78;;;3.73;100.00
10806;BME280;5455;53.224;6.000;2023-01-27T07:15:38;102950.94;;;3.70;100.00
10806;BME280;5455;53.224;6.000;2023-01-27T07:18:06;102939.50;;;3.73;100.00
10806;BME280;5455;53.224;6.000;2023-01-27T07:20:33;102941.47;;;3.77;100.00
10806;BME280;5455;53.224;6.000;2023-01-27T07:23:02;102944.75;;;3.79;100.00
10806;BME280;5455;53.224;6.000;2023-01-27T07:25:31;102951.84;;;3.80;100.00
10806;BME280;5455;53.224;6.000;2023-01-27T07:27:59;102943.91;;;3.79;100.00
10806;BME280;5455;53.224;6.000;2023-01-27T07:30:27;102947.22;;;3.81;100.00
10806;BME280;5455;53.224;6.000;2023-01-27T07:32:54;102956.50;;;3.80;100.00
10806;BME280;5455;53.224;6.000;2023-01-27T07:35:21;102956.50;;;3.80;100.00
10806;BME280;5455;53.224;6.000;2023-01-27T07:37:49;102958.97;;;3.81;100.00
10806;BME280;5455;53.224;6.000;2023-01-27T07:40:17;102968.53;;;3.84;100.00
10806;BME280;5455;53.224;6.000;2023-01-27T07:42:44;102973.41;;;3.82;100.00
10806;BME280;5455;53.224;6.000;2023-01-27T07:45:11;102971.50;;;3.82;100.00
10806;BME280;5455;53.224;6.000;2023-01-27T07:47:38;102972.09;;;3.84;100.00
10806;BME280;5455;53.224;6.000;2023-01-27T07:50:06;102962.50;;;3.82;100.00
10806;BME280;5455;53.224;6.000;2023-01-27T07:52:33;102963.91;;;3.84;100.00
10806;BME280;5455;53.224;6.000;2023-01-27T07:55:01;102975.06;;;3.83;100.00
10806;BME280;5455;53.224;6.000;2023-01-27T07:57:28;102965.28;;;3.87;100.00
10806;BME280;5455;53.224;6.000;2023-01-27T07:59:55;102980.03;;;3.91;100.00
10806;BME280;5455;53.224;6.000;2023-01-27T08:02:22;102981.16;;;3.95;100.00
10806;BME280;5455;53.224;6.000;2023-01-27T08:04:50;102981.16;;;3.95;100.00
10806;BME280;5455;53.224;6.000;2023-01-27T08:07:20;102982.81;;;3.96;100.00
10806;BME280;5455;53.224;6.000;2023-01-27T08:09:47;102978.97;;;3.97;100.00
10806;BME280;5455;53.224;6.000;2023-01-27T08:12:15;102986.69;;;4.05;100.00
10806;BME280;5455;53.224;6.000;2023-01-27T08:14:42;102984.00;;;4.10;100.00
10806;BME280;5455;53.224;6.000;2023-01-27T08:17:09;102992.19;;;4.10;100.00
10806;BME280;5455;53.224;6.000;2023-01-27T08:19:36;102993.00;;;4.11;100.00
10806;BME280;5455;53.224;6.000;2023-01-27T08:22:03;102997.09;;;4.08;100.00
10806;BME280;5455;53.224;6.000;2023-01-27T08:24:31;103006.06;;;4.09;100.00
10806;BME280;5455;53.224;6.000;2023-01-27T08:26:58;103008.00;;;4.08;100.00
10806;BME280;5455;53.224;6.000;2023-01-27T08:29:24;103005.81;;;4.05;100.00
10806;BME280;5455;53.224;6.000;2023-01-27T08:31:51;102997.63;;;4.05;100.00
10806;BME280;5455;53.224;6.000;2023-01-27T08:34:18;103006.66;;;4.11;100.00
10806;BME280;5455;53.224;6.000;2023-01-27T08:36:46;103004.47;;;4.13;100.00
10806;BME280;5455;53.224;6.000;2023-01-27T08:39:13;103000.41;;;4.15;100.00
10806;BME280;5455;53.224;6.000;2023-01-27T08:41:40;103015.19;;;4.19;100.00
10806;BME280;5455;53.224;6.000;2023-01-27T08:44:07;103001.00;;;4.22;100.00
10806;BME280;5455;53.224;6.000;2023-01-27T08:46:35;102998.03;;;4.29;100.00
10806;BME280;5455;53.224;6.000;2023-01-27T08:49:02;102992.00;;;4.27;100.00
10806;BME280;5455;53.224;6.000;2023-01-27T08:51:29;102999.41;;;4.31;100.00
10806;BME280;5455;53.224;6.000;2023-01-27T08:53:56;103004.91;;;4.36;100.00
10806;BME280;5455;53.224;6.000;2023-01-27T08:56:23;102997.28;;;4.38;100.00
10806;BME280;5455;53.224;6.000;2023-01-27T08:58:50;103009.59;;;4.41;100.00
10806;BME280;5455;53.224;6.000;2023-01-27T09:01:19;103008.47;;;4.42;100.00
10806;BME280;5455;53.224;6.000;2023-01-27T09:03:47;103009.88;;;4.44;100.00
10806;BME280;5455;53.224;6.000;2023-01-27T09:06:15;103014.75;;;4.42;100.00
10806;BME280;5455;53.224;6.000;2023-01-27T09:08:42;103024.34;;;4.45;100.00
10806;BME280;5455;53.224;6.000;2023-01-27T09:11:12;103027.94;;;4.51;100.00
10806;BME280;5455;53.224;6.000;2023-01-27T09:13:40;103031.78;;;4.55;100.00
10806;BME280;5455;53.224;6.000;2023-01-27T09:16:07;103039.44;;;4.58;100.00
10806;BME280;5455;53.224;6.000;2023-01-27T09:18:35;103044.13;;;4.62;100.00
10806;BME280;5455;53.224;6.000;2023-01-27T09:21:04;103030.72;;;4.66;100.00
10806;BME280;5455;53.224;6.000;2023-01-27T09:23:34;103026.38;;;4.70;100.00
10806;BME280;5455;53.224;6.000;2023-01-27T09:26:01;103031.06;;;4.74;100.00
10806;BME280;5455;53.224;6.000;2023-01-27T09:28:28;103035.44;;;4.75;100.00
10806;BME280;5455;53.224;6.000;2023-01-27T09:30:58;103039.53;;;4.78;100.00
10806;BME280;5455;53.224;6.000;2023-01-27T09:33:26;103032.44;;;4.77;100.00
10806;BME280;5455;53.224;6.000;2023-01-27T09:36:01;103031.63;;;4.76;100.00
10806;BME280;5455;53.224;6.000;2023-01-27T09:38:33;103036.84;;;4.83;100.00
10806;BME280;5455;53.224;6.000;2023-01-27T09:41:22;103030.25;;;4.79;100.00
10806;BME280;5455;53.224;6.000;2023-01-27T09:59:29;103034.53;;;4.60;100.00
10806;BME280;5455;53.224;6.000;2023-01-27T10:02:23;103021.91;;;4.54;100.00
10806;BME280;5455;53.224;6.000;2023-01-27T10:15:40;103032.53;;;4.97;100.00
10806;BME280;5455;53.224;6.000;2023-01-27T10:18:37;103029.53;;;5.09;100.00
10806;BME280;5455;53.224;6.000;2023-01-27T10:21:15;103039.16;;;5.16;100.00
10806;BME280;5455;53.224;6.000;2023-01-27T10:24:05;103038.31;;;5.11;100.00
10806;BME280;5455;53.224;6.000;2023-01-27T10:26:50;103032.00;;;5.05;100.00
10806;BME280;5455;53.224;6.000;2023-01-27T10:32:00;103042.97;;;5.20;100.00
10806;BME280;5455;53.224;6.000;2023-01-27T10:34:42;103037.25;;;5.22;100.00
10806;BME280;5455;53.224;6.000;2023-01-27T10:37:45;103040.78;;;5.12;100.00
10806;BME280;5455;53.224;6.000;2023-01-27T10:40:26;103033.09;;;5.09;100.00
10806;BME280;5455;53.224;6.000;2023-01-27T10:43:08;103030.03;;;4.90;100.00
10806;BME280;5455;53.224;6.000;2023-01-27T10:45:49;103031.13;;;4.89;100.00
10806;BME280;5455;53.224;6.000;2023-01-27T10:48:34;103034.72;;;4.95;100.00
10806;BME280;5455;53.224;6.000;2023-01-27T10:51:08;103034.41;;;4.86;100.00
10806;BME280;5455;53.224;6.000;2023-01-27T10:56:43;103034.16;;;4.98;100.00
10806;BME280;5455;53.224;6.000;2023-01-27T10:59:31;103033.94;;;5.20;100.00
10806;BME280;5455;53.224;6.000;2023-01-27T11:02:22;103036.19;;;5.33;100.00
10806;BME280;5455;53.224;6.000;2023-01-27T11:04:59;103036.22;;;5.43;100.00
10806;BME280;5455;53.224;6.000;2023-01-27T11:07:30;103023.94;;;5.55;100.00
10806;BME280;5455;53.224;6.000;2023-01-27T11:10:03;103025.84;;;5.60;100.00
10806;BME280;5455;53.224;6.000;2023-01-27T11:12:43;103021.41;;;5.44;100.00
10806;BME280;5455;53.224;6.000;2023-01-27T11:15:31;103023.91;;;5.45;100.00
10806;BME280;5455;53.224;6.000;2023-01-27T11:18:19;103018.44;;;5.50;100.00
10806;BME280;5455;53.224;6.000;2023-01-27T11:20:55;103015.16;;;5.43;100.00
10806;BME280;5455;53.224;6.000;2023-01-27T11:23:30;103014.31;;;5.43;100.00
10806;BME280;5455;53.224;6.000;2023-01-27T11:26:02;103020.91;;;5.62;100.00
10806;BME280;5455;53.224;6.000;2023-01-27T11:29:35;103023.38;;;5.59;100.00
10806;BME280;5455;53.224;6.000;2023-01-27T11:36:43;103025.53;;;5.56;100.00
10806;BME280;5455;53.224;6.000;2023-01-27T11:39:10;103018.72;;;5.54;100.00
10806;BME280;5455;53.224;6.000;2023-01-27T11:41:54;103020.34;;;5.40;100.00
10806;BME280;5455;53.224;6.000;2023-01-27T11:44:25;103012.13;;;5.40;100.00
10806;BME280;5455;53.224;6.000;2023-01-27T11:46:54;103021.44;;;5.34;100.00
10806;BME280;5455;53.224;6.000;2023-01-27T11:49:33;103017.84;;;5.28;100.00
10806;BME280;5455;53.224;6.000;2023-01-27T11:52:13;103012.09;;;5.25;100.00
10806;BME280;5455;53.224;6.000;2023-01-27T11:57:19;103015.03;;;5.03;100.00
10806;BME280;5455;53.224;6.000;2023-01-27T11:59:52;103011.72;;;4.96;100.00
10806;BME280;5455;53.224;6.000;2023-01-27T12:03:42;103005.19;;;4.97;100.00
10806;BME280;5455;53.224;6.000;2023-01-27T12:05:41;103009.84;;;5.02;100.00
10806;BME280;5455;53.224;6.000;2023-01-27T12:08:09;103017.78;;;5.03;100.00
10806;BME280;5455;53.224;6.000;2023-01-27T12:10:38;103017.53;;;5.20;100.00
10806;BME280;5455;53.224;6.000;2023-01-27T12:15:36;103006.94;;;5.43;100.00
10806;BME280;5455;53.224;6.000;2023-01-27T12:18:13;103011.84;;;5.31;100.00
10806;BME280;5455;53.224;6.000;2023-01-27T12:20:43;103017.81;;;5.23;100.00
10806;BME280;5455;53.224;6.000;2023-01-27T12:23:20;103009.34;;;5.15;100.00
10806;BME280;5455;53.224;6.000;2023-01-27T12:25:55;103007.97;;;5.07;100.00
10806;BME280;5455;53.224;6.000;2023-01-27T12:28:41;103003.81;;;4.89;100.00
10806;BME280;5455;53.224;6.000;2023-01-27T12:31:12;102997.47;;;4.79;100.00
10806;BME280;5455;53.224;6.000;2023-01-27T12:33:43;103007.84;;;4.77;100.00
10806;BME280;5455;53.224;6.000;2023-01-27T12:36:16;103008.09;;;4.75;100.00
10806;BME280;5455;53.224;6.000;2023-01-27T12:38:50;102996.31;;;4.65;100.00
10806;BME280;5455;53.224;6.000;2023-01-27T12:41:22;102997.47;;;4.79;100.00
10806;BME280;5455;53.224;6.000;2023-01-27T12:43:58;102993.41;;;4.96;100.00
10806;BME280;5455;53.224;6.000;2023-01-27T12:46:33;102997.31;;;5.16;100.00
10806;BME280;5455;53.224;6.000;2023-01-27T12:49:08;102999.72;;;4.97;100.00
10806;BME280;5455;53.224;6.000;2023-01-27T12:51:39;102986.09;;;5.12;100.00
10806;BME280;5455;53.224;6.000;2023-01-27T12:56:49;102987.22;;;5.41;100.00
10806;BME280;5455;53.224;6.000;2023-01-27T12:59:18;102991.59;;;5.32;100.00
10806;BME280;5455;53.224;6.000;2023-01-27T13:02:16;102995.13;;;5.23;100.00
10806;BME280;5455;53.224;6.000;2023-01-27T13:04:52;102998.69;;;5.18;100.00
10806;BME280;5455;53.224;6.000;2023-01-27T13:07:45;102986.88;;;4.97;100.00
10806;BME280;5455;53.224;6.000;2023-01-27T13:10:23;102989.84;;;4.91;100.00
10806;BME280;5455;53.224;6.000;2023-01-27T13:12:53;102987.13;;;4.96;100.00
10806;BME280;5455;53.224;6.000;2023-01-27T13:15:22;102989.59;;;5.03;100.00
10806;BME280;5455;53.224;6.000;2023-01-27T13:17:54;102995.38;;;5.01;100.00
10806;BME280;5455;53.224;6.000;2023-01-27T13:20:35;102989.91;;;5.06;100.00
10806;BME280;5455;53.224;6.000;2023-01-27T13:23:14;102993.44;;;5.02;100.00
10806;BME280;5455;53.224;6.000;2023-01-27T13:26:08;102986.88;;;4.97;100.00
10806;BME280;5455;53.224;6.000;2023-01-27T13:34:07;102992.38;;;5.08;100.00
10806;BME280;5455;53.224;6.000;2023-01-27T13:36:50;103001.38;;;5.08;100.00
10806;BME280;5455;53.224;6.000;2023-01-27T13:47:04;102992.56;;;4.86;100.00
10806;BME280;5455;53.224;6.000;2023-01-27T13:49:38;102989.28;;;4.84;100.00
10806;BME280;5455;53.224;6.000;2023-01-27T13:52:07;102985.97;;;4.77;100.00
10806;BME280;5455;53.224;6.000;2023-01-27T13:54:35;102981.66;;;4.91;100.00
10806;BME280;5455;53.224;6.000;2023-01-27T14:00:11;102992.34;;;5.03;100.00
10806;BME280;5455;53.224;6.000;2023-01-27T14:11:28;102994.13;;;4.72;100.00
10806;BME280;5455;53.224;6.000;2023-01-27T14:14:09;102991.94;;;4.64;100.00
10806;BME280;5455;53.224;6.000;2023-01-27T14:17:01;102989.50;;;4.72;100.00
10806;BME280;5455;53.224;6.000;2023-01-27T14:22:31;102984.31;;;4.71;100.00
10806;BME280;5455;53.224;6.000;2023-01-27T14:25:15;102982.66;;;4.70;100.00
10806;BME280;5455;53.224;6.000;2023-01-27T14:27:45;102993.22;;;4.51;100.00
10806;BME280;5455;53.224;6.000;2023-01-27T14:30:26;102985.03;;;4.51;100.00
10806;BME280;5455;53.224;6.000;2023-01-27T14:38:45;102996.56;;;4.63;100.00
10806;BME280;5455;53.224;6.000;2023-01-27T14:41:21;102999.56;;;4.62;100.00
10806;BME280;5455;53.224;6.000;2023-01-27T14:46:55;102997.63;;;4.57;100.00
10806;BME280;5455;53.224;6.000;2023-01-27T14:52:37;102998.97;;;4.50;100.00
10806;BME280;5455;53.224;6.000;2023-01-27T14:55:39;102999.22;;;4.48;100.00